Tropical Cyclones
[Index]
Main Index Home Page Stock Weather Photos Extreme Storms Discussion Storm News and Storm Chasing Reports Tropical Cyclones / Hurricanes / Typhoons Weather Data and Links Wild Fires / Bushfires Weather Observation Techniques Weather Picture Catalogue Tornado Pictures and Reports Stock Video Footage and DVDs for sale
Season 1989-1990 Tropical Cyclone SAM Track Map
Season 1989-1990 Summaries: [BoM-AU] [JTWC-AU] [JTWC-SIO] [JTWC-SPAC] [JTWC-SH]
<<- Previous TC | JTWC 1989-1990 Season | Next TC ->>

click for intensity scale information  Lat/long Grid: Show Hide

 Date Labels: Show Hide

Joint Typhoon Warning Centre Cyclone Data

Name: SAM

12 Jan 1990 06:00 UTC to 20 Jan 1990 00:00 UTC

    date/time    lat    long     hPa   cat  kts
1990-01-12 06   13.0   128.0                  20          
1990-01-12 12   13.4   126.6                  20          
1990-01-12 18   13.7   125.2                  20          
1990-01-13 00   13.9   123.8                  25          
1990-01-13 06   13.9   122.8                  25          
1990-01-13 12   13.8   121.9                  30          
1990-01-13 18   13.5   121.2                  30          
1990-01-14 00   13.4   120.7                  35          
1990-01-14 06   13.6   120.0                  35          
1990-01-14 12   14.1   119.0            1     40          
1990-01-14 18   14.8   117.7            1     45          
1990-01-15 00   15.2   116.5            1     45          
1990-01-15 06   15.4   115.3            1     45          
1990-01-15 12   15.5   114.1            1     45          
1990-01-15 18   15.9   113.0            1     50          
1990-01-16 00   16.5   112.2            1     50          
1990-01-16 06   17.0   111.6            1     50          
1990-01-16 12   17.4   110.7            1     45          
1990-01-16 18   17.7   109.5            1     45          
1990-01-17 00   18.0   108.5            1     45          
1990-01-17 06   18.5   107.9            1     50          
1990-01-17 12   19.0   107.5            1     50          
1990-01-17 18   19.5   107.1            1     50          
1990-01-18 00   20.1   106.7            1     50          
1990-01-18 06   20.7   106.2            1     45          
1990-01-18 12   21.4   105.9            1     45          
1990-01-18 18   22.1   105.6            1     40          
1990-01-19 00   22.8   105.4            1     40          
1990-01-19 06   23.6   105.2                  35          
1990-01-19 12   24.5   105.2                  30          
1990-01-19 18   25.3   105.2                  25          
1990-01-20 00   26.0   105.2                  25          
Winds are 1-min average.

Tropical cyclone tracks developed by Michael Bath using data from the Joint Typhoon Warning Centre Best Tracks and Google Maps.


[Australian Severe Weather index] [Copyright Notice] [Email Contacts] [Search This Site] [Privacy Policy]
Document: tropical_cyclone_sam.htm Updated: 18 September 2016